sensor_id;sensor_type;location;lat;lon;timestamp;pressure;altitude;pressure_sealevel;temperature;humidity
76484;BME280;65318;-33.924;18.406;2023-06-14T00:01:34;98510.41;;;17.30;66.09
76484;BME280;65318;-33.924;18.406;2023-06-14T00:04:00;98485.34;;;18.18;64.98
76484;BME280;65318;-33.924;18.406;2023-06-14T00:06:25;98487.03;;;17.39;65.78
76484;BME280;65318;-33.924;18.406;2023-06-14T00:08:51;98535.26;;;17.84;65.93
76484;BME280;65318;-33.924;18.406;2023-06-14T00:13:42;98524.50;;;17.79;66.02
76484;BME280;65318;-33.924;18.406;2023-06-14T00:16:07;98513.26;;;17.69;65.59
76484;BME280;65318;-33.924;18.406;2023-06-14T00:18:33;98524.64;;;17.59;65.21
76484;BME280;65318;-33.924;18.406;2023-06-14T00:20:59;98505.82;;;17.97;64.90
76484;BME280;65318;-33.924;18.406;2023-06-14T00:23:24;98503.18;;;17.53;66.05
76484;BME280;65318;-33.924;18.406;2023-06-14T00:28:15;98526.86;;;17.30;66.18
76484;BME280;65318;-33.924;18.406;2023-06-14T00:30:40;98512.27;;;17.67;65.06
76484;BME280;65318;-33.924;18.406;2023-06-14T00:33:06;98511.82;;;17.42;66.26
76484;BME280;65318;-33.924;18.406;2023-06-14T00:35:32;98494.55;;;17.57;65.30
76484;BME280;65318;-33.924;18.406;2023-06-14T00:37:57;98479.46;;;17.33;65.96
76484;BME280;65318;-33.924;18.406;2023-06-14T00:40:23;98462.20;;;17.39;65.91
76484;BME280;65318;-33.924;18.406;2023-06-14T00:42:48;98468.70;;;17.26;66.15
76484;BME280;65318;-33.924;18.406;2023-06-14T00:45:14;98457.54;;;17.57;65.37
76484;BME280;65318;-33.924;18.406;2023-06-14T00:47:42;98475.36;;;17.72;65.61
76484;BME280;65318;-33.924;18.406;2023-06-14T00:50:07;98459.33;;;17.78;65.26
76484;BME280;65318;-33.924;18.406;2023-06-14T00:52:30;98461.40;;;17.72;64.82
76484;BME280;65318;-33.924;18.406;2023-06-14T00:54:56;98456.81;;;18.03;64.68
76484;BME280;65318;-33.924;18.406;2023-06-14T00:57:21;98432.57;;;17.98;64.88
76484;BME280;65318;-33.924;18.406;2023-06-14T00:59:48;98438.48;;;17.68;65.06
76484;BME280;65318;-33.924;18.406;2023-06-14T01:02:13;98452.82;;;17.41;65.62
76484;BME280;65318;-33.924;18.406;2023-06-14T01:04:38;98447.09;;;17.75;64.93
76484;BME280;65318;-33.924;18.406;2023-06-14T01:07:10;98423.00;;;17.43;65.72
76484;BME280;65318;-33.924;18.406;2023-06-14T01:09:37;98419.80;;;17.63;65.12
76484;BME280;65318;-33.924;18.406;2023-06-14T01:11:58;98411.24;;;17.52;65.48
76484;BME280;65318;-33.924;18.406;2023-06-14T01:14:19;98416.76;;;17.70;65.72
76484;BME280;65318;-33.924;18.406;2023-06-14T01:16:44;98404.70;;;17.37;66.17
76484;BME280;65318;-33.924;18.406;2023-06-14T01:19:12;98395.98;;;17.40;65.79
76484;BME280;65318;-33.924;18.406;2023-06-14T01:21:35;98379.76;;;18.11;64.43
76484;BME280;65318;-33.924;18.406;2023-06-14T01:24:01;98406.29;;;17.33;65.95
76484;BME280;65318;-33.924;18.406;2023-06-14T01:26:27;98394.17;;;17.64;65.90
76484;BME280;65318;-33.924;18.406;2023-06-14T01:28:53;98385.58;;;17.59;65.33
76484;BME280;65318;-33.924;18.406;2023-06-14T01:31:19;98396.40;;;18.37;64.65
76484;BME280;65318;-33.924;18.406;2023-06-14T01:33:44;98400.65;;;17.73;65.13
76484;BME280;65318;-33.924;18.406;2023-06-14T01:36:08;98388.05;;;17.56;65.38
76484;BME280;65318;-33.924;18.406;2023-06-14T01:38:34;98384.97;;;17.56;65.43
76484;BME280;65318;-33.924;18.406;2023-06-14T01:41:00;98389.80;;;17.87;65.32
76484;BME280;65318;-33.924;18.406;2023-06-14T01:43:25;98391.78;;;17.54;66.29
76484;BME280;65318;-33.924;18.406;2023-06-14T01:45:51;98378.99;;;17.65;65.35
76484;BME280;65318;-33.924;18.406;2023-06-14T01:48:16;98385.70;;;17.51;65.64
76484;BME280;65318;-33.924;18.406;2023-06-14T01:50:41;98381.50;;;17.81;65.50
76484;BME280;65318;-33.924;18.406;2023-06-14T01:53:08;98372.81;;;17.80;65.47
76484;BME280;65318;-33.924;18.406;2023-06-14T01:55:32;98360.81;;;17.89;64.50
76484;BME280;65318;-33.924;18.406;2023-06-14T01:57:58;98373.43;;;17.93;65.05
76484;BME280;65318;-33.924;18.406;2023-06-14T02:00:24;98355.31;;;17.53;65.61
76484;BME280;65318;-33.924;18.406;2023-06-14T02:02:49;98353.44;;;17.70;65.77
76484;BME280;65318;-33.924;18.406;2023-06-14T02:05:15;98331.01;;;17.33;66.14
76484;BME280;65318;-33.924;18.406;2023-06-14T02:07:40;98342.12;;;17.68;65.35
76484;BME280;65318;-33.924;18.406;2023-06-14T02:10:07;98334.35;;;17.74;65.00
76484;BME280;65318;-33.924;18.406;2023-06-14T02:12:31;98316.35;;;17.75;65.12
76484;BME280;65318;-33.924;18.406;2023-06-14T02:14:57;98316.74;;;17.52;65.66
76484;BME280;65318;-33.924;18.406;2023-06-14T02:17:22;98303.83;;;17.52;66.32
76484;BME280;65318;-33.924;18.406;2023-06-14T02:19:48;98312.28;;;17.26;66.41
76484;BME280;65318;-33.924;18.406;2023-06-14T02:22:14;98311.92;;;18.15;65.23
76484;BME280;65318;-33.924;18.406;2023-06-14T02:24:38;98316.14;;;17.47;65.77
76484;BME280;65318;-33.924;18.406;2023-06-14T02:27:04;98311.57;;;17.20;66.53
76484;BME280;65318;-33.924;18.406;2023-06-14T02:29:29;98288.90;;;17.29;67.02
76484;BME280;65318;-33.924;18.406;2023-06-14T02:31:55;98322.31;;;17.14;66.88
76484;BME280;65318;-33.924;18.406;2023-06-14T02:34:20;98306.86;;;17.01;67.26
76484;BME280;65318;-33.924;18.406;2023-06-14T02:36:46;98307.13;;;17.39;66.12
76484;BME280;65318;-33.924;18.406;2023-06-14T02:39:11;98301.23;;;17.52;66.54
76484;BME280;65318;-33.924;18.406;2023-06-14T02:41:37;98312.76;;;17.55;65.83
76484;BME280;65318;-33.924;18.406;2023-06-14T02:44:02;98315.89;;;17.54;67.19
76484;BME280;65318;-33.924;18.406;2023-06-14T02:46:28;98317.05;;;17.43;66.19
76484;BME280;65318;-33.924;18.406;2023-06-14T02:48:53;98284.35;;;17.50;65.88
76484;BME280;65318;-33.924;18.406;2023-06-14T02:51:18;98295.43;;;17.61;65.65
76484;BME280;65318;-33.924;18.406;2023-06-14T02:53:44;98285.35;;;17.48;65.94
76484;BME280;65318;-33.924;18.406;2023-06-14T02:56:09;98313.25;;;17.47;66.07
76484;BME280;65318;-33.924;18.406;2023-06-14T02:58:36;98287.95;;;18.16;65.49
76484;BME280;65318;-33.924;18.406;2023-06-14T03:01:00;98323.51;;;17.66;66.25
76484;BME280;65318;-33.924;18.406;2023-06-14T03:03:26;98307.87;;;17.62;66.31
76484;BME280;65318;-33.924;18.406;2023-06-14T03:05:51;98326.29;;;17.80;65.84
76484;BME280;65318;-33.924;18.406;2023-06-14T03:08:17;98381.22;;;17.53;66.79
76484;BME280;65318;-33.924;18.406;2023-06-14T03:10:42;98356.79;;;17.50;66.29
76484;BME280;65318;-33.924;18.406;2023-06-14T03:13:08;98364.62;;;17.59;66.69
76484;BME280;65318;-33.924;18.406;2023-06-14T03:15:34;98357.70;;;17.57;66.54
76484;BME280;65318;-33.924;18.406;2023-06-14T03:17:59;98378.54;;;17.39;66.52
76484;BME280;65318;-33.924;18.406;2023-06-14T03:20:24;98372.04;;;17.31;66.82
76484;BME280;65318;-33.924;18.406;2023-06-14T03:22:50;98366.71;;;17.36;66.47
76484;BME280;65318;-33.924;18.406;2023-06-14T03:25:16;98353.33;;;17.46;66.32
76484;BME280;65318;-33.924;18.406;2023-06-14T03:27:40;98374.40;;;17.74;66.90
76484;BME280;65318;-33.924;18.406;2023-06-14T03:30:07;98363.35;;;18.09;65.26
76484;BME280;65318;-33.924;18.406;2023-06-14T03:32:31;98383.09;;;17.43;66.35
76484;BME280;65318;-33.924;18.406;2023-06-14T03:34:57;98371.56;;;17.88;66.38
76484;BME280;65318;-33.924;18.406;2023-06-14T03:37:22;98385.41;;;17.30;67.33
76484;BME280;65318;-33.924;18.406;2023-06-14T03:39:48;98382.03;;;17.21;66.97
76484;BME280;65318;-33.924;18.406;2023-06-14T03:42:14;98383.09;;;17.60;66.37
76484;BME280;65318;-33.924;18.406;2023-06-14T03:44:39;98384.39;;;17.78;65.83
76484;BME280;65318;-33.924;18.406;2023-06-14T03:47:05;98370.30;;;17.45;66.09
76484;BME280;65318;-33.924;18.406;2023-06-14T03:49:30;98385.22;;;17.04;67.38
76484;BME280;65318;-33.924;18.406;2023-06-14T03:51:55;98383.14;;;17.34;66.74
76484;BME280;65318;-33.924;18.406;2023-06-14T03:54:21;98377.62;;;17.30;67.72
76484;BME280;65318;-33.924;18.406;2023-06-14T03:56:46;98371.64;;;17.83;66.56
76484;BME280;65318;-33.924;18.406;2023-06-14T03:59:12;98390.59;;;17.96;66.18
76484;BME280;65318;-33.924;18.406;2023-06-14T04:01:37;98378.10;;;17.74;67.45
76484;BME280;65318;-33.924;18.406;2023-06-14T04:04:03;98386.80;;;17.13;68.81
76484;BME280;65318;-33.924;18.406;2023-06-14T04:06:28;98391.32;;;17.02;69.59
76484;BME280;65318;-33.924;18.406;2023-06-14T04:08:53;98390.46;;;17.68;67.97
76484;BME280;65318;-33.924;18.406;2023-06-14T04:11:19;98401.36;;;18.18;66.28
76484;BME280;65318;-33.924;18.406;2023-06-14T04:13:45;98403.25;;;17.17;68.97
76484;BME280;65318;-33.924;18.406;2023-06-14T04:16:10;98420.95;;;17.34;69.61
76484;BME280;65318;-33.924;18.406;2023-06-14T04:18:36;98441.50;;;18.05;66.64
76484;BME280;65318;-33.924;18.406;2023-06-14T04:21:02;98439.31;;;18.02;66.80
76484;BME280;65318;-33.924;18.406;2023-06-14T04:23:28;98437.89;;;18.25;66.17
76484;BME280;65318;-33.924;18.406;2023-06-14T04:25:53;98436.83;;;18.22;66.25
76484;BME280;65318;-33.924;18.406;2023-06-14T04:28:19;98437.59;;;18.30;66.12
76484;BME280;65318;-33.924;18.406;2023-06-14T04:30:44;98445.46;;;18.11;65.89
76484;BME280;65318;-33.924;18.406;2023-06-14T04:33:09;98448.13;;;18.38;65.82
76484;BME280;65318;-33.924;18.406;2023-06-14T04:35:35;98450.29;;;18.21;66.29
76484;BME280;65318;-33.924;18.406;2023-06-14T04:38:00;98440.01;;;18.27;66.18
76484;BME280;65318;-33.924;18.406;2023-06-14T04:40:26;98445.90;;;17.95;67.01
76484;BME280;65318;-33.924;18.406;2023-06-14T04:42:51;98446.78;;;18.54;66.15
76484;BME280;65318;-33.924;18.406;2023-06-14T04:45:17;98453.89;;;17.99;66.25
76484;BME280;65318;-33.924;18.406;2023-06-14T04:47:42;98451.38;;;18.37;65.99
76484;BME280;65318;-33.924;18.406;2023-06-14T04:50:08;98457.70;;;18.26;66.38
76484;BME280;65318;-33.924;18.406;2023-06-14T04:52:33;98460.18;;;18.13;66.62
76484;BME280;65318;-33.924;18.406;2023-06-14T04:54:58;98470.46;;;18.55;65.55
76484;BME280;65318;-33.924;18.406;2023-06-14T04:57:24;98471.87;;;17.99;66.17
76484;BME280;65318;-33.924;18.406;2023-06-14T04:59:50;98476.17;;;18.22;65.87
76484;BME280;65318;-33.924;18.406;2023-06-14T05:02:15;98480.71;;;18.34;65.51
76484;BME280;65318;-33.924;18.406;2023-06-14T05:04:40;98484.51;;;18.66;65.28
76484;BME280;65318;-33.924;18.406;2023-06-14T05:07:06;98485.90;;;18.22;66.49
76484;BME280;65318;-33.924;18.406;2023-06-14T05:09:31;98486.86;;;18.36;66.73
76484;BME280;65318;-33.924;18.406;2023-06-14T05:11:57;98500.14;;;18.39;66.05
76484;BME280;65318;-33.924;18.406;2023-06-14T05:14:22;98494.75;;;18.32;66.11
76484;BME280;65318;-33.924;18.406;2023-06-14T05:16:47;98509.94;;;18.61;66.06
76484;BME280;65318;-33.924;18.406;2023-06-14T05:19:13;98523.25;;;18.36;66.15
76484;BME280;65318;-33.924;18.406;2023-06-14T05:21:38;98518.93;;;18.28;66.54
76484;BME280;65318;-33.924;18.406;2023-06-14T05:24:04;98517.59;;;18.10;66.95
76484;BME280;65318;-33.924;18.406;2023-06-14T05:26:29;98518.03;;;18.17;66.68
76484;BME280;65318;-33.924;18.406;2023-06-14T05:28:54;98505.11;;;18.55;65.67
76484;BME280;65318;-33.924;18.406;2023-06-14T05:31:20;98516.43;;;18.58;65.52
76484;BME280;65318;-33.924;18.406;2023-06-14T05:33:45;98534.50;;;18.63;65.40
76484;BME280;65318;-33.924;18.406;2023-06-14T05:36:10;98544.11;;;18.35;65.89
76484;BME280;65318;-33.924;18.406;2023-06-14T05:38:36;98552.82;;;18.20;65.92
76484;BME280;65318;-33.924;18.406;2023-06-14T05:41:01;98543.11;;;18.18;65.72
76484;BME280;65318;-33.924;18.406;2023-06-14T05:43:26;98539.60;;;18.47;65.12
76484;BME280;65318;-33.924;18.406;2023-06-14T05:45:52;98542.05;;;18.50;65.54
76484;BME280;65318;-33.924;18.406;2023-06-14T05:48:17;98533.13;;;18.68;65.11
76484;BME280;65318;-33.924;18.406;2023-06-14T05:50:42;98536.47;;;18.26;66.23
76484;BME280;65318;-33.924;18.406;2023-06-14T05:53:08;98553.58;;;18.49;65.61
76484;BME280;65318;-33.924;18.406;2023-06-14T05:55:33;98553.96;;;18.05;66.82
76484;BME280;65318;-33.924;18.406;2023-06-14T05:57:58;98552.37;;;18.36;65.98
76484;BME280;65318;-33.924;18.406;2023-06-14T06:00:24;98563.56;;;18.13;66.60
76484;BME280;65318;-33.924;18.406;2023-06-14T06:02:49;98553.45;;;18.17;65.94
76484;BME280;65318;-33.924;18.406;2023-06-14T06:05:16;98563.66;;;18.46;65.68
76484;BME280;65318;-33.924;18.406;2023-06-14T06:07:40;98561.80;;;18.27;66.20
76484;BME280;65318;-33.924;18.406;2023-06-14T06:10:07;98556.11;;;18.19;66.33
76484;BME280;65318;-33.924;18.406;2023-06-14T06:12:31;98561.11;;;18.24;66.13
76484;BME280;65318;-33.924;18.406;2023-06-14T06:14:57;98571.10;;;18.40;65.95
76484;BME280;65318;-33.924;18.406;2023-06-14T06:17:21;98565.96;;;18.22;66.87
76484;BME280;65318;-33.924;18.406;2023-06-14T06:19:47;98564.11;;;18.41;66.01
76484;BME280;65318;-33.924;18.406;2023-06-14T06:22:12;98577.19;;;18.24;66.29
76484;BME280;65318;-33.924;18.406;2023-06-14T06:24:38;98587.73;;;18.07;66.78
76484;BME280;65318;-33.924;18.406;2023-06-14T06:27:04;98588.13;;;18.47;65.62
76484;BME280;65318;-33.924;18.406;2023-06-14T06:29:29;98596.33;;;18.59;65.42
76484;BME280;65318;-33.924;18.406;2023-06-14T06:31:54;98601.44;;;18.17;66.58
76484;BME280;65318;-33.924;18.406;2023-06-14T06:34:20;98598.14;;;18.58;65.45
76484;BME280;65318;-33.924;18.406;2023-06-14T06:36:45;98618.64;;;18.28;66.31
76484;BME280;65318;-33.924;18.406;2023-06-14T06:39:11;98612.32;;;18.61;65.28
76484;BME280;65318;-33.924;18.406;2023-06-14T06:41:38;98616.94;;;18.41;65.79
76484;BME280;65318;-33.924;18.406;2023-06-14T06:44:02;98627.18;;;17.95;66.68
76484;BME280;65318;-33.924;18.406;2023-06-14T06:46:27;98644.78;;;17.82;67.48
76484;BME280;65318;-33.924;18.406;2023-06-14T06:48:53;98648.78;;;17.95;67.36
76484;BME280;65318;-33.924;18.406;2023-06-14T06:51:18;98641.70;;;18.42;65.89
76484;BME280;65318;-33.924;18.406;2023-06-14T06:53:48;98648.02;;;18.60;65.43
76484;BME280;65318;-33.924;18.406;2023-06-14T06:56:09;98644.26;;;18.09;66.71
76484;BME280;65318;-33.924;18.406;2023-06-14T06:58:34;98655.57;;;18.06;67.07
76484;BME280;65318;-33.924;18.406;2023-06-14T07:01:00;98670.77;;;18.55;65.62
76484;BME280;65318;-33.924;18.406;2023-06-14T07:03:25;98682.34;;;18.24;66.38
76484;BME280;65318;-33.924;18.406;2023-06-14T07:05:50;98664.18;;;18.01;66.33
76484;BME280;65318;-33.924;18.406;2023-06-14T07:08:16;98667.26;;;18.08;66.77
76484;BME280;65318;-33.924;18.406;2023-06-14T07:10:41;98672.15;;;18.06;66.31
76484;BME280;65318;-33.924;18.406;2023-06-14T07:13:07;98680.63;;;18.28;66.22
76484;BME280;65318;-33.924;18.406;2023-06-14T07:15:32;98670.01;;;18.42;65.16
76484;BME280;65318;-33.924;18.406;2023-06-14T07:17:57;98685.04;;;18.23;67.05
76484;BME280;65318;-33.924;18.406;2023-06-14T07:20:23;98690.78;;;18.08;66.84
76484;BME280;65318;-33.924;18.406;2023-06-14T07:22:48;98689.30;;;18.13;65.87
76484;BME280;65318;-33.924;18.406;2023-06-14T07:25:15;98706.11;;;18.17;66.37
76484;BME280;65318;-33.924;18.406;2023-06-14T07:27:40;98712.32;;;17.82;67.49
76484;BME280;65318;-33.924;18.406;2023-06-14T07:30:06;98711.20;;;17.41;69.31
76484;BME280;65318;-33.924;18.406;2023-06-14T07:32:30;98709.02;;;18.24;67.26
76484;BME280;65318;-33.924;18.406;2023-06-14T07:34:56;98702.59;;;17.87;68.04
76484;BME280;65318;-33.924;18.406;2023-06-14T07:37:22;98710.12;;;18.19;67.63
76484;BME280;65318;-33.924;18.406;2023-06-14T07:39:48;98728.32;;;18.10;68.08
76484;BME280;65318;-33.924;18.406;2023-06-14T07:42:13;98729.78;;;18.56;67.14
76484;BME280;65318;-33.924;18.406;2023-06-14T07:44:39;98736.42;;;18.84;66.42
76484;BME280;65318;-33.924;18.406;2023-06-14T07:47:05;98730.01;;;18.02;67.72
76484;BME280;65318;-33.924;18.406;2023-06-14T07:49:30;98737.01;;;18.72;66.27
76484;BME280;65318;-33.924;18.406;2023-06-14T07:51:55;98751.35;;;17.58;70.56
76484;BME280;65318;-33.924;18.406;2023-06-14T07:54:21;98747.79;;;19.32;65.07
76484;BME280;65318;-33.924;18.406;2023-06-14T07:56:45;98740.91;;;18.91;66.18
76484;BME280;65318;-33.924;18.406;2023-06-14T07:59:11;98736.59;;;18.54;68.29
76484;BME280;65318;-33.924;18.406;2023-06-14T08:01:37;98730.68;;;18.85;65.54
76484;BME280;65318;-33.924;18.406;2023-06-14T08:04:02;98714.09;;;19.14;65.10
76484;BME280;65318;-33.924;18.406;2023-06-14T08:06:28;98716.32;;;18.44;66.59
76484;BME280;65318;-33.924;18.406;2023-06-14T08:08:53;98722.07;;;18.14;68.19
76484;BME280;65318;-33.924;18.406;2023-06-14T08:11:23;98725.93;;;18.37;67.94
76484;BME280;65318;-33.924;18.406;2023-06-14T08:13:44;98744.04;;;18.04;68.36
76484;BME280;65318;-33.924;18.406;2023-06-14T08:16:09;98761.63;;;17.97;67.82
76484;BME280;65318;-33.924;18.406;2023-06-14T08:18:34;98749.11;;;19.07;65.75
76484;BME280;65318;-33.924;18.406;2023-06-14T08:21:00;98759.65;;;18.43;66.93
76484;BME280;65318;-33.924;18.406;2023-06-14T08:23:25;98762.69;;;18.97;65.20
76484;BME280;65318;-33.924;18.406;2023-06-14T08:25:51;98776.14;;;18.01;67.02
76484;BME280;65318;-33.924;18.406;2023-06-14T08:28:17;98778.99;;;18.33;66.72
76484;BME280;65318;-33.924;18.406;2023-06-14T08:30:42;98776.40;;;18.70;65.22
76484;BME280;65318;-33.924;18.406;2023-06-14T08:33:07;98778.09;;;18.12;67.83
76484;BME280;65318;-33.924;18.406;2023-06-14T08:35:32;98790.28;;;17.77;69.27
76484;BME280;65318;-33.924;18.406;2023-06-14T08:37:57;98798.30;;;17.49;69.65
76484;BME280;65318;-33.924;18.406;2023-06-14T08:40:24;98798.78;;;17.29;71.87
76484;BME280;65318;-33.924;18.406;2023-06-14T08:42:52;98799.40;;;18.52;67.40
76484;BME280;65318;-33.924;18.406;2023-06-14T08:45:15;98807.92;;;18.29;68.83
76484;BME280;65318;-33.924;18.406;2023-06-14T08:47:40;98800.78;;;18.00;68.36
76484;BME280;65318;-33.924;18.406;2023-06-14T08:50:07;98808.65;;;18.24;68.46
76484;BME280;65318;-33.924;18.406;2023-06-14T08:52:31;98812.87;;;18.34;67.99
76484;BME280;65318;-33.924;18.406;2023-06-14T08:54:57;98818.31;;;18.04;69.57
76484;BME280;65318;-33.924;18.406;2023-06-14T08:57:22;98820.75;;;18.23;68.75
76484;BME280;65318;-33.924;18.406;2023-06-14T08:59:48;98823.23;;;18.34;68.04
76484;BME280;65318;-33.924;18.406;2023-06-14T09:02:13;98825.38;;;18.67;67.87
76484;BME280;65318;-33.924;18.406;2023-06-14T09:04:39;98827.55;;;18.51;68.23
76484;BME280;65318;-33.924;18.406;2023-06-14T09:07:05;98837.48;;;18.21;69.14
76484;BME280;65318;-33.924;18.406;2023-06-14T09:09:29;98832.65;;;19.06;66.60
76484;BME280;65318;-33.924;18.406;2023-06-14T09:11:55;98844.46;;;18.35;68.45
76484;BME280;65318;-33.924;18.406;2023-06-14T09:14:21;98851.41;;;18.67;66.76
76484;BME280;65318;-33.924;18.406;2023-06-14T09:16:45;98857.47;;;17.99;68.55
76484;BME280;65318;-33.924;18.406;2023-06-14T09:19:20;98855.27;;;18.97;64.60
76484;BME280;65318;-33.924;18.406;2023-06-14T09:21:36;98860.98;;;18.57;66.76
76484;BME280;65318;-33.924;18.406;2023-06-14T09:24:02;98864.25;;;19.19;64.76
76484;BME280;65318;-33.924;18.406;2023-06-14T09:26:27;98872.07;;;18.28;66.48
76484;BME280;65318;-33.924;18.406;2023-06-14T09:28:52;98859.48;;;19.24;63.76
76484;BME280;65318;-33.924;18.406;2023-06-14T09:31:19;98842.20;;;18.03;67.75
76484;BME280;65318;-33.924;18.406;2023-06-14T09:33:43;98822.48;;;18.23;65.77
76484;BME280;65318;-33.924;18.406;2023-06-14T09:36:11;98821.81;;;17.92;66.65
76484;BME280;65318;-33.924;18.406;2023-06-14T09:38:35;98846.22;;;17.99;67.67
76484;BME280;65318;-33.924;18.406;2023-06-14T09:41:00;98856.31;;;18.54;66.62
76484;BME280;65318;-33.924;18.406;2023-06-14T09:43:25;98846.82;;;17.70;67.54
76484;BME280;65318;-33.924;18.406;2023-06-14T09:45:50;98849.86;;;17.89;67.87
76484;BME280;65318;-33.924;18.406;2023-06-14T09:48:17;98852.45;;;18.10;67.18
76484;BME280;65318;-33.924;18.406;2023-06-14T09:50:41;98850.20;;;18.52;66.54
76484;BME280;65318;-33.924;18.406;2023-06-14T09:53:07;98843.39;;;18.43;66.94
76484;BME280;65318;-33.924;18.406;2023-06-14T09:55:35;98854.11;;;18.37;66.92
76484;BME280;65318;-33.924;18.406;2023-06-14T09:57:57;98854.22;;;18.46;66.65
76484;BME280;65318;-33.924;18.406;2023-06-14T10:00:23;98836.53;;;17.97;66.94
76484;BME280;65318;-33.924;18.406;2023-06-14T10:02:51;98850.19;;;18.79;65.53
76484;BME280;65318;-33.924;18.406;2023-06-14T10:05:16;98864.66;;;18.62;66.13
76484;BME280;65318;-33.924;18.406;2023-06-14T10:07:42;98863.76;;;18.41;66.81
76484;BME280;65318;-33.924;18.406;2023-06-14T10:10:06;98862.45;;;18.46;65.53
76484;BME280;65318;-33.924;18.406;2023-06-14T10:12:30;98865.54;;;18.38;65.87
76484;BME280;65318;-33.924;18.406;2023-06-14T10:14:56;98875.84;;;18.66;65.73
76484;BME280;65318;-33.924;18.406;2023-06-14T10:17:30;98869.49;;;18.69;64.77
76484;BME280;65318;-33.924;18.406;2023-06-14T10:19:50;98866.43;;;18.28;66.11
76484;BME280;65318;-33.924;18.406;2023-06-14T10:22:17;98844.35;;;18.24;65.47
76484;BME280;65318;-33.924;18.406;2023-06-14T10:24:42;98847.00;;;18.51;64.36
76484;BME280;65318;-33.924;18.406;2023-06-14T10:27:04;98848.27;;;18.74;65.18
76484;BME280;65318;-33.924;18.406;2023-06-14T10:29:29;98835.16;;;18.48;65.04
76484;BME280;65318;-33.924;18.406;2023-06-14T10:31:57;98841.47;;;18.34;65.02
76484;BME280;65318;-33.924;18.406;2023-06-14T10:34:24;98831.74;;;18.21;65.27
76484;BME280;65318;-33.924;18.406;2023-06-14T10:36:46;98814.33;;;18.59;64.31
76484;BME280;65318;-33.924;18.406;2023-06-14T10:39:17;98809.00;;;18.73;64.75
76484;BME280;65318;-33.924;18.406;2023-06-14T10:41:38;98806.63;;;18.19;65.89
76484;BME280;65318;-33.924;18.406;2023-06-14T10:46:30;98809.31;;;17.98;66.33
76484;BME280;65318;-33.924;18.406;2023-06-14T10:48:58;98815.11;;;18.85;64.77
76484;BME280;65318;-33.924;18.406;2023-06-14T10:51:20;98812.37;;;18.90;64.43
76484;BME280;65318;-33.924;18.406;2023-06-14T10:53:44;98808.52;;;18.65;64.97
76484;BME280;65318;-33.924;18.406;2023-06-14T10:56:23;98807.01;;;18.31;64.98
76484;BME280;65318;-33.924;18.406;2023-06-14T10:58:35;98801.06;;;18.27;65.45
76484;BME280;65318;-33.924;18.406;2023-06-14T11:01:01;98790.17;;;18.30;65.45
76484;BME280;65318;-33.924;18.406;2023-06-14T11:03:43;98784.09;;;18.29;65.22
76484;BME280;65318;-33.924;18.406;2023-06-14T11:05:53;98781.63;;;18.52;65.43
76484;BME280;65318;-33.924;18.406;2023-06-14T11:08:34;98764.34;;;18.71;64.84
76484;BME280;65318;-33.924;18.406;2023-06-14T11:10:44;98764.29;;;18.72;64.43
76484;BME280;65318;-33.924;18.406;2023-06-14T11:13:08;98764.47;;;18.51;65.07
76484;BME280;65318;-33.924;18.406;2023-06-14T11:15:35;98764.61;;;18.34;65.14
76484;BME280;65318;-33.924;18.406;2023-06-14T11:18:01;98768.94;;;18.69;64.89
76484;BME280;65318;-33.924;18.406;2023-06-14T11:20:26;98766.60;;;18.43;65.19
76484;BME280;65318;-33.924;18.406;2023-06-14T11:22:50;98762.29;;;18.92;63.18
76484;BME280;65318;-33.924;18.406;2023-06-14T11:25:16;98760.09;;;18.52;63.96
76484;BME280;65318;-33.924;18.406;2023-06-14T11:27:42;98763.90;;;18.38;65.02
76484;BME280;65318;-33.924;18.406;2023-06-14T11:30:09;98771.73;;;18.54;64.70
76484;BME280;65318;-33.924;18.406;2023-06-14T11:32:32;98779.57;;;18.33;65.41
76484;BME280;65318;-33.924;18.406;2023-06-14T11:34:57;98787.29;;;18.86;63.89
76484;BME280;65318;-33.924;18.406;2023-06-14T11:37:23;98785.34;;;18.32;64.93
76484;BME280;65318;-33.924;18.406;2023-06-14T11:39:48;98777.90;;;18.11;64.94
76484;BME280;65318;-33.924;18.406;2023-06-14T11:42:15;98777.51;;;18.73;63.87
76484;BME280;65318;-33.924;18.406;2023-06-14T11:44:39;98773.33;;;18.60;63.85
76484;BME280;65318;-33.924;18.406;2023-06-14T11:47:05;98763.96;;;18.31;64.21
76484;BME280;65318;-33.924;18.406;2023-06-14T11:49:35;98762.16;;;18.02;64.76
76484;BME280;65318;-33.924;18.406;2023-06-14T11:51:56;98756.23;;;18.38;64.43
76484;BME280;65318;-33.924;18.406;2023-06-14T11:54:22;98753.81;;;18.23;64.85
76484;BME280;65318;-33.924;18.406;2023-06-14T11:56:47;98756.96;;;18.29;64.50
76484;BME280;65318;-33.924;18.406;2023-06-14T11:59:14;98752.93;;;18.61;63.50
76484;BME280;65318;-33.924;18.406;2023-06-14T12:01:38;98759.73;;;18.18;64.05
76484;BME280;65318;-33.924;18.406;2023-06-14T12:04:04;98759.76;;;18.13;63.41
76484;BME280;65318;-33.924;18.406;2023-06-14T12:06:30;98759.59;;;18.22;63.83
76484;BME280;65318;-33.924;18.406;2023-06-14T12:08:56;98765.14;;;18.47;63.98
76484;BME280;65318;-33.924;18.406;2023-06-14T12:11:20;98766.39;;;17.73;64.24
76484;BME280;65318;-33.924;18.406;2023-06-14T12:13:46;98770.64;;;18.13;64.08
76484;BME280;65318;-33.924;18.406;2023-06-14T12:16:12;98766.20;;;18.48;63.71
76484;BME280;65318;-33.924;18.406;2023-06-14T12:18:38;98770.10;;;17.82;65.04
76484;BME280;65318;-33.924;18.406;2023-06-14T12:21:04;98777.49;;;18.01;64.52
76484;BME280;65318;-33.924;18.406;2023-06-14T12:25:53;98778.79;;;18.34;64.03
76484;BME280;65318;-33.924;18.406;2023-06-14T12:28:19;98780.50;;;18.22;63.74
76484;BME280;65318;-33.924;18.406;2023-06-14T12:30:45;98786.46;;;18.39;63.93
76484;BME280;65318;-33.924;18.406;2023-06-14T12:33:10;98785.01;;;18.44;63.80
76484;BME280;65318;-33.924;18.406;2023-06-14T12:35:36;98794.30;;;18.38;64.03
76484;BME280;65318;-33.924;18.406;2023-06-14T12:38:01;98803.05;;;18.21;63.81
76484;BME280;65318;-33.924;18.406;2023-06-14T12:40:26;98802.06;;;18.81;62.61